createdAt,value
2022-10-26T00:01:06.664Z,15.77
2022-10-26T00:03:44.061Z,15.84
2022-10-26T00:06:18.859Z,15.81
2022-10-26T00:08:53.124Z,15.80
2022-10-26T00:11:28.970Z,15.81
2022-10-26T00:14:04.449Z,15.76
2022-10-26T00:16:38.642Z,15.78
2022-10-26T00:19:11.367Z,15.81
2022-10-26T00:21:44.269Z,15.77
2022-10-26T00:26:54.873Z,15.78
2022-10-26T00:29:27.675Z,15.78
2022-10-26T00:32:01.793Z,15.75
2022-10-26T00:34:34.823Z,15.68
2022-10-26T00:37:07.835Z,15.69
2022-10-26T00:39:40.847Z,15.66
2022-10-26T00:42:18.460Z,15.72
2022-10-26T00:45:20.197Z,15.67
2022-10-26T00:47:58.140Z,15.71
2022-10-26T00:50:36.321Z,15.66
2022-10-26T00:53:10.013Z,15.66
2022-10-26T00:55:47.100Z,15.54
2022-10-26T00:58:21.795Z,15.57
2022-10-26T01:00:54.539Z,15.62
2022-10-26T01:03:29.099Z,15.64
2022-10-26T01:06:06.432Z,15.62
2022-10-26T01:08:39.612Z,15.61
2022-10-26T01:11:14.065Z,15.66
2022-10-26T01:13:49.711Z,15.62
2022-10-26T01:16:40.750Z,15.59
2022-10-26T01:19:47.779Z,15.58
2022-10-26T01:22:23.933Z,15.69
2022-10-26T01:25:05.313Z,15.65
2022-10-26T01:27:41.602Z,15.70
2022-10-26T01:30:21.449Z,15.65
2022-10-26T01:33:11.515Z,15.66
2022-10-26T01:35:52.655Z,15.73
2022-10-26T01:38:32.809Z,15.72
2022-10-26T01:41:13.043Z,15.69
2022-10-26T01:43:51.466Z,15.70
2022-10-26T01:46:28.212Z,15.68
2022-10-26T01:49:07.789Z,15.69
2022-10-26T01:51:42.708Z,15.72
2022-10-26T01:54:15.469Z,15.72
2022-10-26T01:56:51.701Z,15.66
2022-10-26T01:59:42.840Z,15.65
2022-10-26T02:03:02.550Z,15.68
2022-10-26T02:05:59.099Z,15.68
2022-10-26T02:08:47.038Z,15.60
2022-10-26T02:11:32.120Z,15.60
2022-10-26T02:16:56.253Z,15.55
2022-10-26T02:19:38.765Z,15.58
2022-10-26T02:22:17.755Z,15.59
2022-10-26T02:24:53.848Z,15.53
2022-10-26T02:27:28.689Z,15.67
2022-10-26T02:30:04.020Z,15.58
2022-10-26T02:32:40.270Z,15.48
2022-10-26T02:35:18.593Z,15.47
2022-10-26T02:37:53.539Z,15.47
2022-10-26T02:40:28.581Z,15.44
2022-10-26T02:43:05.456Z,15.46
2022-10-26T02:45:44.482Z,15.49
2022-10-26T02:48:17.584Z,15.43
2022-10-26T02:50:58.742Z,15.40
2022-10-26T02:53:36.159Z,15.46
2022-10-26T02:56:16.577Z,15.46
2022-10-26T02:58:56.482Z,15.38
2022-10-26T03:01:30.321Z,15.41
2022-10-26T03:04:03.385Z,15.46
2022-10-26T03:06:37.740Z,15.49
2022-10-26T03:09:10.530Z,15.38
2022-10-26T03:11:43.109Z,15.44
2022-10-26T03:14:16.178Z,15.37
2022-10-26T03:16:49.024Z,15.32
2022-10-26T03:19:24.588Z,15.40
2022-10-26T03:21:59.050Z,15.30
2022-10-26T03:24:31.854Z,15.36
2022-10-26T03:27:04.836Z,15.37
2022-10-26T03:29:37.545Z,15.38
2022-10-26T03:32:13.297Z,15.39
2022-10-26T03:34:53.787Z,15.37
2022-10-26T03:37:32.271Z,15.30
2022-10-26T03:40:05.982Z,15.32
2022-10-26T03:42:39.373Z,15.34
2022-10-26T03:45:13.202Z,15.35
2022-10-26T03:47:48.168Z,15.37
2022-10-26T03:50:27.341Z,15.39
2022-10-26T03:53:01.733Z,15.44
2022-10-26T03:55:34.918Z,15.43
2022-10-26T03:58:09.254Z,15.39
2022-10-26T04:00:44.862Z,15.37
2022-10-26T04:03:17.750Z,15.39
2022-10-26T04:05:50.625Z,15.36
2022-10-26T04:08:24.815Z,15.39
2022-10-26T04:10:59.930Z,15.42
2022-10-26T04:13:35.959Z,15.35
2022-10-26T04:16:09.698Z,15.41
2022-10-26T04:18:42.505Z,15.42
2022-10-26T04:21:15.259Z,15.44
2022-10-26T04:23:49.306Z,15.49
2022-10-26T04:26:22.080Z,15.52
2022-10-26T04:28:55.066Z,15.55
2022-10-26T04:31:27.762Z,15.55
2022-10-26T04:34:00.554Z,15.48
2022-10-26T04:36:34.560Z,15.50
2022-10-26T04:39:09.163Z,15.52
2022-10-26T04:41:43.660Z,15.49
2022-10-26T04:44:19.559Z,15.45
2022-10-26T04:46:53.045Z,15.50
2022-10-26T04:49:25.888Z,15.55
2022-10-26T04:51:58.801Z,15.54
2022-10-26T04:54:32.939Z,15.50
2022-10-26T04:57:05.642Z,15.54
2022-10-26T04:59:38.384Z,15.57
2022-10-26T05:02:11.436Z,15.54
2022-10-26T05:04:44.079Z,15.54
2022-10-26T05:07:17.077Z,15.52
2022-10-26T05:09:51.095Z,15.53
2022-10-26T05:12:24.549Z,15.55
2022-10-26T05:14:59.122Z,15.50
2022-10-26T05:17:32.280Z,15.52
2022-10-26T05:20:06.196Z,15.52
2022-10-26T05:22:38.978Z,15.59
2022-10-26T05:25:13.212Z,15.57
2022-10-26T05:27:45.998Z,15.58
2022-10-26T05:30:20.503Z,15.54
2022-10-26T05:32:58.981Z,15.55
2022-10-26T05:35:32.892Z,15.59
2022-10-26T05:38:09.871Z,15.55
2022-10-26T05:40:49.819Z,15.52
2022-10-26T05:43:24.471Z,15.53
2022-10-26T05:45:57.416Z,15.60
2022-10-26T05:48:31.305Z,15.57
2022-10-26T05:51:04.631Z,15.56
2022-10-26T05:53:45.182Z,15.67
2022-10-26T05:56:21.778Z,15.63
2022-10-26T05:58:55.746Z,15.69
2022-10-26T06:01:47.507Z,15.64
2022-10-26T06:04:31.477Z,15.64
2022-10-26T06:07:21.038Z,15.70
2022-10-26T06:09:55.712Z,15.63
2022-10-26T06:12:31.282Z,15.54
2022-10-26T06:15:10.361Z,15.57
2022-10-26T06:17:58.716Z,15.58
2022-10-26T06:20:50.677Z,15.57
2022-10-26T06:23:45.817Z,15.48
2022-10-26T06:26:34.367Z,15.53
2022-10-26T06:29:20.396Z,15.47
2022-10-26T06:31:54.836Z,15.50
2022-10-26T06:34:36.173Z,15.49
2022-10-26T06:37:09.638Z,15.45
2022-10-26T06:39:48.903Z,15.49
2022-10-26T06:42:24.577Z,15.45
2022-10-26T06:44:59.413Z,15.42
2022-10-26T06:47:41.528Z,15.34
2022-10-26T06:50:26.940Z,15.40
2022-10-26T06:53:11.456Z,15.37
2022-10-26T06:55:47.405Z,15.40
2022-10-26T06:58:22.806Z,15.38
2022-10-26T07:00:57.791Z,15.40
2022-10-26T07:03:30.592Z,15.38
2022-10-26T07:06:03.334Z,15.44
2022-10-26T07:08:36.220Z,15.48
2022-10-26T07:11:39.242Z,15.40
2022-10-26T07:14:12.630Z,15.37
2022-10-26T07:16:46.651Z,15.43
2022-10-26T07:19:19.445Z,15.43
2022-10-26T07:21:52.292Z,15.42
2022-10-26T07:24:25.050Z,15.39
2022-10-26T07:26:58.872Z,15.44
2022-10-26T07:29:35.335Z,15.45
2022-10-26T07:32:09.878Z,15.46
2022-10-26T07:34:42.656Z,15.53
2022-10-26T07:37:15.331Z,15.57
2022-10-26T07:39:48.158Z,15.58
2022-10-26T07:42:20.962Z,15.64
2022-10-26T07:44:53.725Z,15.69
2022-10-26T07:47:27.721Z,15.69
2022-10-26T07:50:00.770Z,15.73
2022-10-26T07:52:35.826Z,15.81
2022-10-26T07:55:10.347Z,15.87
2022-10-26T07:57:43.383Z,15.85
2022-10-26T08:00:20.068Z,15.94
2022-10-26T08:02:54.987Z,16.07
2022-10-26T08:05:27.822Z,16.02
2022-10-26T08:08:00.611Z,16.00
2022-10-26T08:10:33.563Z,16.03
2022-10-26T08:13:06.352Z,16.09
2022-10-26T08:15:41.576Z,16.13
2022-10-26T08:18:15.878Z,16.23
2022-10-26T08:20:48.850Z,16.20
2022-10-26T08:23:21.835Z,16.43
2022-10-26T08:26:11.415Z,16.54
2022-10-26T08:28:44.327Z,16.66
2022-10-26T08:31:17.371Z,16.79
2022-10-26T08:33:51.502Z,16.88
2022-10-26T08:36:27.214Z,16.97
2022-10-26T08:41:41.867Z,17.10
2022-10-26T08:44:26.118Z,17.17
2022-10-26T08:47:06.787Z,17.22
2022-10-26T08:49:47.631Z,17.17
2022-10-26T08:52:25.442Z,17.38
2022-10-26T08:55:01.173Z,17.49
2022-10-26T08:57:40.991Z,17.57
2022-10-26T09:00:19.234Z,17.63
2022-10-26T09:02:52.497Z,17.71
2022-10-26T09:05:36.804Z,17.77
2022-10-26T09:08:19.080Z,17.86
2022-10-26T09:10:59.121Z,17.91
2022-10-26T09:13:43.187Z,18.04
2022-10-26T09:16:24.533Z,17.99
2022-10-26T09:19:09.975Z,18.12
2022-10-26T09:21:51.309Z,18.08
2022-10-26T09:24:31.930Z,18.23
2022-10-26T09:27:13.253Z,18.33
2022-10-26T09:29:46.168Z,18.23
2022-10-26T09:32:21.752Z,18.39
2022-10-26T09:34:58.097Z,18.46
2022-10-26T09:37:38.098Z,18.62
2022-10-26T09:40:19.170Z,18.64
2022-10-26T09:42:59.104Z,18.66
2022-10-26T09:45:34.567Z,18.72
2022-10-26T09:48:13.447Z,18.76
2022-10-26T09:50:49.714Z,18.78
2022-10-26T09:53:23.797Z,18.85
2022-10-26T09:56:07.198Z,18.95
2022-10-26T09:58:45.226Z,18.93
2022-10-26T10:01:24.103Z,18.90
2022-10-26T10:04:11.941Z,18.93
2022-10-26T10:06:46.731Z,18.95
2022-10-26T10:09:22.257Z,18.99
2022-10-26T10:11:56.677Z,19.01
2022-10-26T10:14:34.651Z,19.09
2022-10-26T10:17:20.885Z,19.08
2022-10-26T10:19:54.059Z,19.07
2022-10-26T10:22:27.542Z,19.01
2022-10-26T10:25:03.172Z,19.10
2022-10-26T10:27:35.925Z,19.15
2022-10-26T10:30:23.107Z,19.15
2022-10-26T10:33:07.094Z,19.23
2022-10-26T10:35:55.307Z,19.23
2022-10-26T10:38:28.458Z,19.35
2022-10-26T10:41:03.863Z,19.51
2022-10-26T10:43:37.722Z,19.55
2022-10-26T10:46:10.761Z,19.74
2022-10-26T10:48:47.699Z,19.80
2022-10-26T10:51:23.391Z,19.92
2022-10-26T10:53:57.786Z,19.91
2022-10-26T10:56:41.257Z,19.99
2022-10-26T10:59:30.227Z,20.12
2022-10-26T11:02:34.662Z,20.23
2022-10-26T11:05:27.629Z,20.31
2022-10-26T11:08:07.327Z,20.37
2022-10-26T11:11:01.637Z,20.45
2022-10-26T11:13:47.308Z,20.50
2022-10-26T11:16:25.088Z,20.51
2022-10-26T11:19:05.548Z,20.64
2022-10-26T11:21:40.824Z,20.71
2022-10-26T11:24:21.483Z,20.67
2022-10-26T11:27:00.011Z,20.62
2022-10-26T11:29:43.488Z,20.60
2022-10-26T11:32:25.582Z,20.66
2022-10-26T11:35:06.462Z,20.70
2022-10-26T11:37:46.998Z,20.74
2022-10-26T11:40:32.354Z,20.81
2022-10-26T11:43:21.115Z,20.80
2022-10-26T11:46:12.771Z,20.75
2022-10-26T11:48:55.602Z,20.88
2022-10-26T11:51:40.629Z,20.91
2022-10-26T11:56:56.987Z,21.00
2022-10-26T11:59:51.568Z,21.10
2022-10-26T12:02:30.714Z,21.12
2022-10-26T12:05:09.361Z,21.17
2022-10-26T12:07:48.970Z,21.23
2022-10-26T12:10:35.099Z,21.31
2022-10-26T12:13:21.011Z,21.39
2022-10-26T12:16:04.304Z,21.32
2022-10-26T12:18:55.964Z,21.41
2022-10-26T12:21:31.958Z,21.38
2022-10-26T12:24:27.566Z,21.39
2022-10-26T12:27:01.653Z,21.36
2022-10-26T12:29:46.838Z,21.31
2022-10-26T12:32:54.879Z,21.30
2022-10-26T12:35:35.473Z,21.36
2022-10-26T12:38:47.085Z,21.39
2022-10-26T12:41:22.525Z,21.36
2022-10-26T12:48:38.969Z,21.36
2022-10-26T12:51:44.323Z,21.35
2022-10-26T12:54:32.429Z,21.34
2022-10-26T12:57:18.053Z,21.24
2022-10-26T13:00:02.057Z,21.21
2022-10-26T13:02:55.756Z,21.22
2022-10-26T13:06:00.287Z,21.18
2022-10-26T13:08:42.929Z,21.15
2022-10-26T13:11:20.063Z,21.15
2022-10-26T13:13:58.791Z,21.02
2022-10-26T13:16:31.982Z,20.99
2022-10-26T13:19:06.075Z,20.95
2022-10-26T13:21:48.789Z,20.89
2022-10-26T13:24:25.689Z,20.91
2022-10-26T13:27:27.940Z,20.93
2022-10-26T13:30:42.060Z,20.83
2022-10-26T13:33:37.807Z,20.86
2022-10-26T13:36:19.406Z,20.85
2022-10-26T13:38:52.468Z,20.70
2022-10-26T13:41:29.359Z,20.65
2022-10-26T13:44:06.979Z,20.74
2022-10-26T13:46:44.535Z,20.72
2022-10-26T13:49:22.812Z,20.63
2022-10-26T13:51:55.934Z,20.66
2022-10-26T13:54:35.845Z,20.65
2022-10-26T13:57:18.946Z,20.65
2022-10-26T14:00:04.200Z,20.68
2022-10-26T14:02:49.950Z,20.59
2022-10-26T14:05:24.164Z,20.66
2022-10-26T14:07:59.715Z,20.60
2022-10-26T14:10:37.366Z,20.53
2022-10-26T14:13:16.244Z,20.60
2022-10-26T14:15:49.561Z,20.58
2022-10-26T14:18:25.081Z,20.69
2022-10-26T14:21:02.447Z,20.65
2022-10-26T14:23:36.846Z,20.72
2022-10-26T14:26:20.529Z,20.76
2022-10-26T14:28:56.848Z,20.70
2022-10-26T14:31:31.807Z,20.70
2022-10-26T14:34:06.021Z,20.73
2022-10-26T14:36:42.539Z,20.66
2022-10-26T14:39:25.801Z,20.69
2022-10-26T14:41:59.055Z,20.75
2022-10-26T14:44:33.376Z,20.70
2022-10-26T14:47:06.238Z,20.81
2022-10-26T14:49:40.239Z,20.64
2022-10-26T14:52:28.941Z,20.76
2022-10-26T14:55:13.392Z,20.77
2022-10-26T14:57:50.607Z,20.78
2022-10-26T15:00:28.041Z,20.87
2022-10-26T15:03:15.346Z,20.88
2022-10-26T15:05:48.251Z,20.92
2022-10-26T15:08:52.638Z,21.00
2022-10-26T15:11:30.881Z,21.11
2022-10-26T15:14:04.390Z,21.18
2022-10-26T15:16:51.518Z,21.06
2022-10-26T15:19:25.493Z,21.22
2022-10-26T15:21:59.493Z,21.14
2022-10-26T15:24:41.619Z,21.11
2022-10-26T15:27:17.112Z,21.15
2022-10-26T15:29:51.924Z,21.04
2022-10-26T15:32:39.059Z,21.09
2022-10-26T15:35:39.724Z,20.97
2022-10-26T15:38:15.003Z,20.93
2022-10-26T15:40:50.790Z,20.89
2022-10-26T15:43:23.591Z,20.92
2022-10-26T15:45:57.490Z,20.95
2022-10-26T15:48:35.795Z,20.87
2022-10-26T15:51:13.670Z,20.81
2022-10-26T15:53:49.097Z,20.81
2022-10-26T15:56:27.548Z,20.74
2022-10-26T15:59:00.578Z,20.74
2022-10-26T16:01:33.811Z,20.72
2022-10-26T16:04:09.581Z,20.61
2022-10-26T16:06:43.622Z,20.70
2022-10-26T16:09:20.564Z,20.64
2022-10-26T16:11:53.796Z,20.56
2022-10-26T16:14:33.544Z,20.59
2022-10-26T16:17:10.273Z,20.73
2022-10-26T16:19:44.310Z,20.72
2022-10-26T16:22:17.612Z,20.45
2022-10-26T16:24:51.910Z,20.55
2022-10-26T16:27:24.979Z,20.56
2022-10-26T16:30:07.313Z,20.47
2022-10-26T16:32:40.988Z,20.41
2022-10-26T16:35:18.310Z,20.41
2022-10-26T16:37:51.295Z,20.32
2022-10-26T16:40:24.084Z,20.28
2022-10-26T16:42:58.869Z,20.15
2022-10-26T16:45:34.744Z,20.11
2022-10-26T16:48:15.243Z,20.10
2022-10-26T16:50:49.750Z,20.02
2022-10-26T16:53:24.979Z,20.03
2022-10-26T16:56:14.298Z,19.94
2022-10-26T16:58:52.872Z,19.96
2022-10-26T17:01:28.713Z,20.01
2022-10-26T17:04:05.040Z,19.96
2022-10-26T17:06:43.170Z,19.85
2022-10-26T17:09:16.063Z,19.82
2022-10-26T17:11:50.095Z,19.78
2022-10-26T17:14:23.541Z,19.84
2022-10-26T17:16:56.775Z,19.85
2022-10-26T17:19:33.546Z,19.84
2022-10-26T17:22:13.203Z,19.79
2022-10-26T17:24:46.481Z,19.86
2022-10-26T17:27:20.534Z,19.92
2022-10-26T17:29:53.548Z,19.81
2022-10-26T17:32:26.330Z,19.70
2022-10-26T17:35:04.083Z,19.76
2022-10-26T17:55:02.891Z,19.47
2022-10-26T17:57:46.385Z,19.59
2022-10-26T18:00:22.390Z,19.53
2022-10-26T18:02:55.617Z,19.58
2022-10-26T18:05:54.374Z,19.65
2022-10-26T18:08:36.727Z,19.56
2022-10-26T18:11:49.567Z,19.45
2022-10-26T18:14:26.546Z,19.38
2022-10-26T18:16:59.846Z,19.37
2022-10-26T18:19:36.737Z,19.38
2022-10-26T18:22:10.187Z,19.39
2022-10-26T18:24:44.933Z,19.28
2022-10-26T18:27:24.356Z,19.25
2022-10-26T18:29:59.845Z,19.21
2022-10-26T18:32:49.433Z,19.19
2022-10-26T18:35:25.194Z,19.25
2022-10-26T18:37:58.538Z,19.08
2022-10-26T18:40:35.263Z,19.05
2022-10-26T18:43:11.255Z,19.09
2022-10-26T18:45:52.333Z,19.11
2022-10-26T18:48:27.015Z,19.08
2022-10-26T18:51:06.108Z,19.24
2022-10-26T18:53:43.987Z,19.23
2022-10-26T18:56:19.314Z,19.21
2022-10-26T18:58:54.541Z,19.08
2022-10-26T19:01:34.125Z,19.16
2022-10-26T19:04:09.421Z,19.19
2022-10-26T19:06:47.472Z,19.08
2022-10-26T19:09:25.064Z,19.11
2022-10-26T19:12:00.157Z,19.09
2022-10-26T19:14:38.614Z,18.98
2022-10-26T19:17:15.342Z,18.98
2022-10-26T19:19:49.314Z,18.95
2022-10-26T19:22:26.507Z,18.96
2022-10-26T19:25:05.068Z,18.90
2022-10-26T19:27:39.619Z,18.87
2022-10-26T19:30:16.953Z,18.84
2022-10-26T19:32:57.379Z,18.78
2022-10-26T19:35:31.507Z,18.96
2022-10-26T19:38:04.722Z,18.91
2022-10-26T19:40:37.860Z,18.81
2022-10-26T19:43:17.869Z,18.73
2022-10-26T19:45:50.834Z,18.72
2022-10-26T19:48:25.363Z,18.84
2022-10-26T19:51:00.952Z,18.94
2022-10-26T19:53:34.073Z,18.93
2022-10-26T19:56:11.796Z,19.09
2022-10-26T19:58:46.244Z,19.01
2022-10-26T20:01:22.518Z,18.89
2022-10-26T20:03:58.471Z,18.80
2022-10-26T20:06:57.183Z,18.88
2022-10-26T20:09:33.207Z,18.78
2022-10-26T20:12:18.826Z,18.82
2022-10-26T20:14:51.942Z,18.80
2022-10-26T20:17:28.361Z,18.79
2022-10-26T20:20:05.819Z,18.69
2022-10-26T20:22:39.238Z,18.75
2022-10-26T20:25:12.583Z,18.64
2022-10-26T20:27:48.994Z,18.55
2022-10-26T20:30:22.350Z,18.64
2022-10-26T20:32:57.672Z,18.49
2022-10-26T20:35:34.169Z,18.36
2022-10-26T20:38:12.147Z,18.29
2022-10-26T20:40:45.919Z,18.25
2022-10-26T20:43:22.012Z,18.43
2022-10-26T20:45:59.970Z,18.23
2022-10-26T20:48:33.666Z,18.27
2022-10-26T20:51:23.901Z,18.30
2022-10-26T20:54:15.526Z,18.31
2022-10-26T20:56:51.185Z,18.24
2022-10-26T21:02:12.609Z,18.28
2022-10-26T21:04:45.967Z,18.21
2022-10-26T21:07:20.356Z,18.23
2022-10-26T21:09:53.588Z,18.24
2022-10-26T21:12:26.861Z,18.15
2022-10-26T21:15:10.292Z,18.12
2022-10-26T21:17:50.782Z,18.09
2022-10-26T21:20:29.335Z,18.12
2022-10-26T21:23:09.893Z,18.12
2022-10-26T21:25:43.152Z,18.08
2022-10-26T21:28:22.406Z,18.10
2022-10-26T21:30:55.743Z,18.10
2022-10-26T21:33:38.073Z,18.19
2022-10-26T21:36:14.951Z,18.01
2022-10-26T21:38:54.895Z,17.96
2022-10-26T21:41:30.155Z,17.98
2022-10-26T21:44:09.673Z,17.96
2022-10-26T21:46:47.936Z,17.97
2022-10-26T21:49:21.288Z,18.09
2022-10-26T21:51:56.815Z,18.08
2022-10-26T21:54:33.645Z,18.05
2022-10-26T21:57:19.943Z,18.06
2022-10-26T21:59:55.819Z,18.08
2022-10-26T22:02:29.079Z,18.09
2022-10-26T22:05:06.145Z,18.08
2022-10-26T22:07:39.033Z,18.08
2022-10-26T22:10:13.438Z,18.07
2022-10-26T22:12:52.742Z,18.06
2022-10-26T22:15:25.833Z,18.04
2022-10-26T22:18:00.251Z,18.19
2022-10-26T22:20:35.170Z,18.26
2022-10-26T22:23:09.026Z,18.33
2022-10-26T22:25:43.542Z,18.15
2022-10-26T22:28:16.532Z,18.19
2022-10-26T22:30:49.377Z,18.18
2022-10-26T22:33:28.054Z,18.04
2022-10-26T22:36:05.642Z,18.11
2022-10-26T22:38:39.221Z,18.17
2022-10-26T22:41:17.008Z,18.30
2022-10-26T22:43:50.946Z,18.19
2022-10-26T22:46:25.995Z,18.15
2022-10-26T22:49:26.837Z,18.17
2022-10-26T22:52:02.405Z,18.27
2022-10-26T22:54:35.707Z,18.23
2022-10-26T23:00:46.298Z,18.25
2022-10-26T23:03:21.328Z,18.14
2022-10-26T23:06:03.226Z,18.05
2022-10-26T23:08:36.212Z,18.06
2022-10-26T23:11:10.791Z,18.03
2022-10-26T23:13:45.515Z,18.05
2022-10-26T23:16:19.236Z,18.06
2022-10-26T23:18:53.335Z,17.94
2022-10-26T23:21:30.269Z,17.92
2022-10-26T23:24:03.397Z,17.85
2022-10-26T23:26:36.943Z,17.99
2022-10-26T23:29:11.437Z,17.86
2022-10-26T23:31:46.607Z,17.94
2022-10-26T23:34:23.187Z,18.00
2022-10-26T23:36:56.311Z,17.94
2022-10-26T23:39:29.352Z,17.96
2022-10-26T23:42:02.389Z,17.94
2022-10-26T23:44:36.786Z,18.03
2022-10-26T23:47:09.791Z,17.94
2022-10-26T23:49:42.654Z,17.87
2022-10-26T23:52:15.730Z,17.92
2022-10-26T23:57:23.051Z,17.84
2022-10-26T23:59:57.207Z,17.82
